createdAt,value
2023-01-11T00:00:23.153Z,3.44
2023-01-11T00:01:23.298Z,3.44
2023-01-11T00:02:23.478Z,3.28
2023-01-11T00:03:23.603Z,3.28
2023-01-11T00:04:23.761Z,3.44
2023-01-11T00:05:23.803Z,3.52
2023-01-11T00:06:23.941Z,3.52
2023-01-11T00:07:24.064Z,3.44
2023-01-11T00:08:24.161Z,3.44
2023-01-11T00:09:24.324Z,3.44
2023-01-11T00:10:24.460Z,3.28
2023-01-11T00:11:24.571Z,3.28
2023-01-11T00:12:24.715Z,3.2
2023-01-11T00:13:24.815Z,3.2
2023-01-11T00:14:24.915Z,3.2
2023-01-11T00:15:25.025Z,3.2
2023-01-11T00:16:25.231Z,3.28
2023-01-11T00:17:25.269Z,3.28
2023-01-11T00:18:25.372Z,3.28
2023-01-11T00:19:25.521Z,3.28
2023-01-11T00:20:25.703Z,3.28
2023-01-11T00:21:25.776Z,3.28
2023-01-11T00:22:25.926Z,3.44
2023-01-11T00:23:26.028Z,3.28
2023-01-11T00:24:26.197Z,3.44
2023-01-11T00:25:26.333Z,3.2
2023-01-11T00:26:26.480Z,3.28
2023-01-11T00:27:26.633Z,3.2
2023-01-11T00:28:26.736Z,3.28
2023-01-11T00:29:26.847Z,3.28
2023-01-11T00:30:27.006Z,3.28
2023-01-11T00:31:27.195Z,3.44
2023-01-11T00:32:27.276Z,3.28
2023-01-11T00:33:27.357Z,3.28
2023-01-11T00:34:27.495Z,3.28
2023-01-11T00:35:27.609Z,3.28
2023-01-11T00:36:27.700Z,3.28
2023-01-11T00:37:27.857Z,3.28
2023-01-11T00:38:27.950Z,3.28
2023-01-11T00:39:28.052Z,3.28
2023-01-11T00:40:28.155Z,3.44
2023-01-11T00:41:28.305Z,3.28
2023-01-11T00:42:28.463Z,3.28
2023-01-11T00:43:28.607Z,3.28
2023-01-11T00:44:28.757Z,3.2
2023-01-11T00:45:28.859Z,3.28
2023-01-11T00:46:29.085Z,3.44
2023-01-11T00:47:29.164Z,3.52
2023-01-11T00:48:29.314Z,3.44
2023-01-11T00:49:29.422Z,3.6
2023-01-11T00:50:29.647Z,3.52
2023-01-11T00:51:29.677Z,3.52
2023-01-11T00:52:29.819Z,3.52
2023-01-11T00:53:29.924Z,3.6
2023-01-11T00:54:30.075Z,3.6
2023-01-11T00:55:30.175Z,3.52
2023-01-11T00:56:30.277Z,3.52
2023-01-11T00:57:30.383Z,3.44
2023-01-11T00:58:30.479Z,3.52
2023-01-11T00:59:30.588Z,3.6
2023-01-11T01:00:30.686Z,3.68
2023-01-11T01:01:30.805Z,3.68
2023-01-11T01:02:30.963Z,3.6
2023-01-11T01:03:30.987Z,3.84
2023-01-11T01:04:31.103Z,4
2023-01-11T01:05:31.245Z,3.84
2023-01-11T01:06:31.532Z,3.6
2023-01-11T01:07:31.543Z,3.6
2023-01-11T01:08:31.696Z,3.6
2023-01-11T01:09:31.801Z,3.52
2023-01-11T01:10:31.947Z,3.84
2023-01-11T01:11:32.102Z,3.84
2023-01-11T01:12:32.200Z,3.84
2023-01-11T01:13:32.357Z,3.92
2023-01-11T01:14:32.506Z,4
2023-01-11T01:15:32.774Z,3.92
2023-01-11T01:16:32.763Z,4
2023-01-11T01:17:32.859Z,4.08
2023-01-11T01:18:32.959Z,4.16
2023-01-11T01:19:33.130Z,3.92
2023-01-11T01:20:33.214Z,3.84
2023-01-11T01:21:33.361Z,4.08
2023-01-11T01:22:33.463Z,4
2023-01-11T01:23:33.568Z,4.08
2023-01-11T01:24:33.672Z,4.08
2023-01-11T01:25:33.770Z,4.08
2023-01-11T01:26:33.876Z,4.08
2023-01-11T01:27:34.020Z,4.16
2023-01-11T01:28:34.127Z,4.4
2023-01-11T01:29:34.234Z,4.4
2023-01-11T01:30:34.331Z,4.4
2023-01-11T01:31:34.450Z,4.4
2023-01-11T01:32:34.534Z,4.48
2023-01-11T01:33:34.644Z,4.48
2023-01-11T01:34:34.734Z,4.72
2023-01-11T01:35:34.897Z,4.72
2023-01-11T01:36:34.989Z,4.48
2023-01-11T01:37:35.096Z,4.48
2023-01-11T01:38:35.194Z,4.72
2023-01-11T01:39:35.338Z,4.4
2023-01-11T01:40:35.441Z,4.64
2023-01-11T01:41:35.595Z,4.64
2023-01-11T01:42:35.741Z,4.72
2023-01-11T01:43:35.866Z,4.48
2023-01-11T01:44:36.000Z,4.72
2023-01-11T01:45:36.151Z,4.8
2023-01-11T01:46:36.382Z,4.72
2023-01-11T01:47:36.414Z,4.8
2023-01-11T01:48:36.506Z,4.88
2023-01-11T01:49:36.657Z,4.88
2023-01-11T01:50:36.755Z,4.8
2023-01-11T01:51:36.909Z,4.64
2023-01-11T01:52:37.038Z,4.64
2023-01-11T01:53:37.173Z,4.88
2023-01-11T01:54:37.268Z,4.88
2023-01-11T01:55:37.368Z,4.8
2023-01-11T01:56:37.465Z,4.64
2023-01-11T01:57:37.620Z,4.64
2023-01-11T01:58:37.719Z,4.64
2023-01-11T01:59:37.817Z,4.64
2023-01-11T02:00:37.969Z,4.64
2023-01-11T02:01:38.091Z,4.64
2023-01-11T02:02:38.308Z,4.32
2023-01-11T02:03:38.325Z,4.48
2023-01-11T02:04:38.478Z,4.64
2023-01-11T02:05:38.574Z,4.48
2023-01-11T02:06:38.814Z,4.64
2023-01-11T02:07:38.849Z,4.64
2023-01-11T02:08:38.946Z,4.48
2023-01-11T02:09:39.090Z,4.64
2023-01-11T02:10:39.237Z,4.72
2023-01-11T02:11:39.390Z,4.8
2023-01-11T02:12:39.491Z,4.72
2023-01-11T02:13:39.602Z,5.12
2023-01-11T02:14:39.743Z,4.88
2023-01-11T02:15:39.949Z,4.72
2023-01-11T02:16:39.998Z,4.88
2023-01-11T02:17:40.095Z,4.8
2023-01-11T02:18:40.201Z,4.8
2023-01-11T02:19:40.361Z,4.72
2023-01-11T02:20:40.451Z,4.72
2023-01-11T02:21:40.609Z,4.88
2023-01-11T02:22:40.705Z,4.8
2023-01-11T02:23:40.856Z,4.8
2023-01-11T02:24:40.961Z,4.88
2023-01-11T02:25:41.056Z,4.88
2023-01-11T02:26:41.211Z,5.04
2023-01-11T02:27:41.314Z,5.12
2023-01-11T02:28:41.419Z,5.2
2023-01-11T02:29:41.520Z,5.2
2023-01-11T02:30:41.617Z,5.2
2023-01-11T02:31:41.768Z,5.12
2023-01-11T02:32:41.823Z,5.12
2023-01-11T02:33:41.969Z,5.12
2023-01-11T02:34:42.076Z,5.12
2023-01-11T02:35:42.173Z,5.04
2023-01-11T02:36:42.278Z,5.04
2023-01-11T02:37:42.436Z,5.12
2023-01-11T02:38:42.532Z,5.28
2023-01-11T02:39:42.630Z,5.28
2023-01-11T02:40:42.729Z,5.28
2023-01-11T02:41:42.830Z,5.2
2023-01-11T02:42:42.982Z,5.12
2023-01-11T02:43:43.084Z,5.2
2023-01-11T02:44:43.233Z,5.2
2023-01-11T02:45:43.343Z,5.2
2023-01-11T02:46:43.553Z,5.12
2023-01-11T02:47:43.638Z,5.12
2023-01-11T02:48:43.741Z,5.2
2023-01-11T02:49:43.849Z,5.12
2023-01-11T02:50:44.015Z,5.12
2023-01-11T02:51:44.101Z,5.28
2023-01-11T02:52:44.255Z,5.12
2023-01-11T02:53:44.349Z,5.28
2023-01-11T02:54:44.465Z,5.2
2023-01-11T02:55:44.557Z,5.12
2023-01-11T02:56:44.651Z,5.28
2023-01-11T02:57:44.810Z,5.44
2023-01-11T02:58:44.963Z,5.52
2023-01-11T02:59:45.054Z,5.44
2023-01-11T03:00:45.160Z,5.44
2023-01-11T03:01:45.325Z,5.28
2023-01-11T03:02:45.500Z,5.28
2023-01-11T03:03:45.563Z,5.44
2023-01-11T03:04:45.669Z,5.44
2023-01-11T03:05:45.771Z,5.44
2023-01-11T03:06:45.982Z,5.52
2023-01-11T03:07:46.018Z,5.52
2023-01-11T03:08:46.119Z,5.6
2023-01-11T03:09:46.220Z,5.68
2023-01-11T03:10:46.325Z,5.84
2023-01-11T03:11:46.430Z,5.6
2023-01-11T03:12:46.577Z,5.6
2023-01-11T03:13:46.680Z,5.6
2023-01-11T03:14:46.829Z,5.52
2023-01-11T03:15:46.955Z,5.52
2023-01-11T03:16:47.084Z,5.52
2023-01-11T03:17:47.185Z,5.6
2023-01-11T03:18:47.285Z,5.44
2023-01-11T03:19:47.394Z,5.44
2023-01-11T03:20:47.496Z,5.52
2023-01-11T03:21:47.593Z,5.52
2023-01-11T03:22:47.689Z,5.52
2023-01-11T03:23:47.795Z,5.6
2023-01-11T03:24:47.892Z,5.92
2023-01-11T03:25:47.993Z,5.84
2023-01-11T03:26:48.092Z,5.68
2023-01-11T03:27:48.199Z,5.84
2023-01-11T03:28:48.314Z,5.84
2023-01-11T03:29:48.402Z,5.68
2023-01-11T03:30:48.504Z,5.84
2023-01-11T03:31:48.679Z,5.92
2023-01-11T03:32:48.756Z,5.92
2023-01-11T03:33:48.860Z,5.92
2023-01-11T03:34:48.959Z,5.84
2023-01-11T03:35:49.113Z,5.92
2023-01-11T03:36:49.211Z,6
2023-01-11T03:37:49.316Z,5.92
2023-01-11T03:38:49.468Z,5.92
2023-01-11T03:39:49.571Z,5.84
2023-01-11T03:40:49.674Z,5.92
2023-01-11T03:41:49.769Z,5.84
2023-01-11T03:42:49.921Z,5.84
2023-01-11T03:43:50.075Z,5.84
2023-01-11T03:44:50.221Z,5.84
2023-01-11T03:45:50.322Z,5.68
2023-01-11T03:46:50.514Z,5.84
2023-01-11T03:47:50.579Z,5.92
2023-01-11T03:48:50.678Z,5.92
2023-01-11T03:49:50.830Z,5.84
2023-01-11T03:50:50.951Z,6
2023-01-11T03:51:51.085Z,6.08
2023-01-11T03:52:51.185Z,6
2023-01-11T03:53:51.347Z,5.92
2023-01-11T03:54:51.458Z,5.68
2023-01-11T03:55:51.589Z,5.68
2023-01-11T03:56:51.689Z,5.68
2023-01-11T03:57:51.858Z,5.84
2023-01-11T03:58:51.994Z,5.92
2023-01-11T03:59:52.144Z,5.92
2023-01-11T04:00:52.295Z,5.92
2023-01-11T04:01:52.356Z,5.92
2023-01-11T04:02:52.458Z,5.92
2023-01-11T04:03:52.661Z,5.92
2023-01-11T04:04:52.660Z,6
2023-01-11T04:05:52.806Z,5.84
2023-01-11T04:06:52.945Z,6.08
2023-01-11T04:07:53.011Z,6
2023-01-11T04:08:53.108Z,6.08
2023-01-11T04:09:53.260Z,6
2023-01-11T04:10:53.364Z,6
2023-01-11T04:11:53.464Z,6
2023-01-11T04:12:53.567Z,6
2023-01-11T04:13:53.664Z,6
2023-01-11T04:14:53.780Z,6
2023-01-11T04:15:53.919Z,5.92
2023-01-11T04:16:54.083Z,6
2023-01-11T04:17:54.220Z,6
2023-01-11T04:18:54.326Z,6
2023-01-11T04:19:54.479Z,6
2023-01-11T04:20:54.623Z,6
2023-01-11T04:21:54.736Z,6.08
2023-01-11T04:22:54.880Z,6
2023-01-11T04:23:55.033Z,5.92
2023-01-11T04:24:55.135Z,5.92
2023-01-11T04:25:55.284Z,5.68
2023-01-11T04:26:55.384Z,5.68
2023-01-11T04:27:55.488Z,5.84
2023-01-11T04:28:55.651Z,5.92
2023-01-11T04:29:55.789Z,5.92
2023-01-11T04:30:55.889Z,6
2023-01-11T04:31:56.055Z,6
2023-01-11T04:32:56.099Z,5.92
2023-01-11T04:33:56.200Z,5.84
2023-01-11T04:34:56.344Z,5.84
2023-01-11T04:35:56.451Z,5.84
2023-01-11T04:36:56.601Z,5.6
2023-01-11T04:37:56.781Z,6
2023-01-11T04:38:56.857Z,5.92
2023-01-11T04:39:56.961Z,5.84
2023-01-11T04:40:57.106Z,5.84
2023-01-11T04:41:57.245Z,5.84
2023-01-11T04:42:57.360Z,5.92
2023-01-11T04:43:57.511Z,5.84
2023-01-11T04:44:57.613Z,5.84
2023-01-11T04:45:57.731Z,5.68
2023-01-11T04:46:57.867Z,5.68
2023-01-11T04:47:57.966Z,5.68
2023-01-11T04:48:58.071Z,5.68
2023-01-11T04:49:58.220Z,5.6
2023-01-11T04:50:58.369Z,5.84
2023-01-11T04:51:58.520Z,5.84
2023-01-11T04:52:58.627Z,5.68
2023-01-11T04:53:58.726Z,5.52
2023-01-11T04:54:58.855Z,5.6
2023-01-11T04:55:58.987Z,5.52
2023-01-11T04:56:59.142Z,5.52
2023-01-11T04:57:59.291Z,5.52
2023-01-11T04:58:59.426Z,5.68
2023-01-11T04:59:59.586Z,5.84
2023-01-11T05:00:59.794Z,5.84
2023-01-11T05:01:59.891Z,5.92
2023-01-11T05:03:00.035Z,6
2023-01-11T05:04:00.300Z,6
2023-01-11T05:05:00.246Z,6
2023-01-11T05:06:00.392Z,6.08
2023-01-11T05:07:00.605Z,6.24
2023-01-11T05:08:00.649Z,6.08
2023-01-11T05:09:00.797Z,6.08
2023-01-11T05:10:00.897Z,6.08
2023-01-11T05:11:01.015Z,6.08
2023-01-11T05:12:01.107Z,6.08
2023-01-11T05:13:01.256Z,6.08
2023-01-11T05:14:01.365Z,6.24
2023-01-11T05:15:01.519Z,6.24
2023-01-11T05:16:01.623Z,6.24
2023-01-11T05:17:01.715Z,6.32
2023-01-11T05:18:01.819Z,6.32
2023-01-11T05:19:01.966Z,6.32
2023-01-11T05:20:02.066Z,6.24
2023-01-11T05:21:02.240Z,6.08
2023-01-11T05:22:02.322Z,6.08
2023-01-11T05:23:02.471Z,6.08
2023-01-11T05:24:02.570Z,6.24
2023-01-11T05:25:02.676Z,6.08
2023-01-11T05:26:02.776Z,6.24
2023-01-11T05:27:02.871Z,6.24
2023-01-11T05:28:02.978Z,6.24
2023-01-11T05:29:03.132Z,6.24
2023-01-11T05:30:03.244Z,6.24
2023-01-11T05:31:03.380Z,6.32
2023-01-11T05:32:03.531Z,6.32
2023-01-11T05:33:03.630Z,6.4
2023-01-11T05:34:03.734Z,6.32
2023-01-11T05:35:03.892Z,6.32
2023-01-11T05:36:04.033Z,6.24
2023-01-11T05:37:04.137Z,6.32
2023-01-11T05:38:04.240Z,6.4
2023-01-11T05:39:04.346Z,6.4
2023-01-11T05:40:04.444Z,6.32
2023-01-11T05:41:04.592Z,6.4
2023-01-11T05:42:04.696Z,6.4
2023-01-11T05:43:04.845Z,6.4
2023-01-11T05:44:04.993Z,6.4
2023-01-11T05:45:05.121Z,6.4
2023-01-11T05:46:05.221Z,6.48
2023-01-11T05:47:05.351Z,6.48
2023-01-11T05:48:05.450Z,6.4
2023-01-11T05:49:05.603Z,6.32
2023-01-11T05:50:05.703Z,6.32
2023-01-11T05:51:05.810Z,6.4
2023-01-11T05:52:05.912Z,6.4
2023-01-11T05:53:06.018Z,6.4
2023-01-11T05:54:06.121Z,6.32
2023-01-11T05:55:06.263Z,6.4
2023-01-11T05:56:06.386Z,6.32
2023-01-11T05:57:06.517Z,6.4
2023-01-11T05:58:06.674Z,6.48
2023-01-11T05:59:06.819Z,6.4
2023-01-11T06:00:06.928Z,6.48
2023-01-11T06:01:07.025Z,6.48
2023-01-11T06:02:07.347Z,6.4
2023-01-11T06:03:07.327Z,6.4
2023-01-11T06:04:07.424Z,6.4
2023-01-11T06:05:07.588Z,6.4
2023-01-11T06:06:07.680Z,6.4
2023-01-11T06:07:07.779Z,6.48
2023-01-11T06:08:07.881Z,6.4
2023-01-11T06:09:07.985Z,6.4
2023-01-11T06:10:08.084Z,6.4
2023-01-11T06:11:08.240Z,6.48
2023-01-11T06:12:08.339Z,6.64
2023-01-11T06:13:08.491Z,6.48
2023-01-11T06:14:08.587Z,6.64
2023-01-11T06:15:08.695Z,6.48
2023-01-11T06:16:08.845Z,6.64
2023-01-11T06:17:08.897Z,6.48
2023-01-11T06:18:08.999Z,6.64
2023-01-11T06:19:09.152Z,6.48
2023-01-11T06:20:09.302Z,6.64
2023-01-11T06:21:09.399Z,6.48
2023-01-11T06:22:09.506Z,6.4
2023-01-11T06:23:09.655Z,6.48
2023-01-11T06:24:09.767Z,6.48
2023-01-11T06:25:09.858Z,6.32
2023-01-11T06:26:10.010Z,6.48
2023-01-11T06:27:10.121Z,6.48
2023-01-11T06:28:10.212Z,6.64
2023-01-11T06:29:10.317Z,6.64
2023-01-11T06:30:10.415Z,6.4
2023-01-11T06:31:10.642Z,6.4
2023-01-11T06:32:10.669Z,6.32
2023-01-11T06:33:10.816Z,6.4
2023-01-11T06:34:10.931Z,6.32
2023-01-11T06:35:11.085Z,6.4
2023-01-11T06:36:11.229Z,6.32
2023-01-11T06:37:11.334Z,6.32
2023-01-11T06:38:11.489Z,6.4
2023-01-11T06:39:11.638Z,6.4
2023-01-11T06:40:11.739Z,6.4
2023-01-11T06:41:11.886Z,6.48
2023-01-11T06:42:12.034Z,6.4
2023-01-11T06:43:12.187Z,6.4
2023-01-11T06:44:12.341Z,6.32
2023-01-11T06:45:12.436Z,6.4
2023-01-11T06:46:12.679Z,6.24
2023-01-11T06:47:12.692Z,6.4
2023-01-11T06:48:12.789Z,6.4
2023-01-11T06:49:12.939Z,6.4
2023-01-11T06:50:13.090Z,6.4
2023-01-11T06:51:13.198Z,6.4
2023-01-11T06:52:13.308Z,6.48
2023-01-11T06:53:13.397Z,6.48
2023-01-11T06:54:13.520Z,6.8
2023-01-11T06:55:13.603Z,6.64
2023-01-11T06:56:13.781Z,6.72
2023-01-11T06:57:13.808Z,6.72
2023-01-11T06:58:13.902Z,6.72
2023-01-11T06:59:14.013Z,6.8
2023-01-11T07:00:14.155Z,6.72
2023-01-11T07:01:14.362Z,6.8
2023-01-11T07:02:14.364Z,6.8
2023-01-11T07:03:14.463Z,6.72
2023-01-11T07:04:14.627Z,6.64
2023-01-11T07:05:14.787Z,6.64
2023-01-11T07:06:14.873Z,6.8
2023-01-11T07:07:14.975Z,6.8
2023-01-11T07:08:15.122Z,6.88
2023-01-11T07:09:15.229Z,6.8
2023-01-11T07:10:15.386Z,6.8
2023-01-11T07:11:15.501Z,6.8
2023-01-11T07:12:15.572Z,6.72
2023-01-11T07:13:15.679Z,6.8
2023-01-11T07:14:15.781Z,6.8
2023-01-11T07:15:15.932Z,6.72
2023-01-11T07:16:16.091Z,6.8
2023-01-11T07:17:16.139Z,6.72
2023-01-11T07:18:16.288Z,6.8
2023-01-11T07:19:16.435Z,6.8
2023-01-11T07:20:16.595Z,6.88
2023-01-11T07:21:16.743Z,7.04
2023-01-11T07:22:16.842Z,7.12
2023-01-11T07:23:16.947Z,6.88
2023-01-11T07:24:17.046Z,6.88
2023-01-11T07:25:17.159Z,6.8
2023-01-11T07:26:17.522Z,6.8
2023-01-11T07:27:17.347Z,6.8
2023-01-11T07:28:17.471Z,6.88
2023-01-11T07:29:17.554Z,6.8
2023-01-11T07:30:17.677Z,6.88
2023-01-11T07:31:17.853Z,6.88
2023-01-11T07:32:17.907Z,6.88
2023-01-11T07:33:18.057Z,6.8
2023-01-11T07:34:18.163Z,6.8
2023-01-11T07:35:18.314Z,6.72
2023-01-11T07:36:18.417Z,6.8
2023-01-11T07:37:27.908Z,6.88
2023-01-11T07:38:18.686Z,6.88
2023-01-11T07:39:18.767Z,6.8
2023-01-11T07:40:18.936Z,6.8
2023-01-11T07:41:19.020Z,6.8
2023-01-11T07:42:19.172Z,6.88
2023-01-11T07:43:19.323Z,6.88
2023-01-11T07:44:19.386Z,6.88
2023-01-11T07:45:19.555Z,6.88
2023-01-11T07:46:19.714Z,7.2
2023-01-11T07:47:19.729Z,6.88
2023-01-11T07:48:19.880Z,6.88
2023-01-11T07:49:19.986Z,6.88
2023-01-11T07:50:20.132Z,6.8
2023-01-11T07:51:20.253Z,6.8
2023-01-11T07:52:20.389Z,6.8
2023-01-11T07:53:20.540Z,6.8
2023-01-11T07:54:20.642Z,6.8
2023-01-11T07:55:20.748Z,6.8
2023-01-11T07:56:22.328Z,6.88
2023-01-11T07:57:20.995Z,6.88
2023-01-11T07:58:21.143Z,7.12
2023-01-11T07:59:21.279Z,7.04
2023-01-11T08:00:21.347Z,7.04
2023-01-11T08:01:21.455Z,6.88
2023-01-11T08:02:21.635Z,6.88
2023-01-11T08:03:21.807Z,6.88
2023-01-11T08:04:21.882Z,6.88
2023-01-11T08:05:21.968Z,6.88
2023-01-11T08:06:22.060Z,6.88
2023-01-11T08:07:22.209Z,6.88
2023-01-11T08:08:22.310Z,6.88
2023-01-11T08:09:22.410Z,6.88
2023-01-11T08:10:22.518Z,7.04
2023-01-11T08:11:22.620Z,7.04
2023-01-11T08:12:22.743Z,7.12
2023-01-11T08:13:22.874Z,7.2
2023-01-11T08:14:22.972Z,7.12
2023-01-11T08:15:23.710Z,7.2
2023-01-11T08:16:23.321Z,7.28
2023-01-11T08:17:23.461Z,7.2
2023-01-11T08:18:23.578Z,7.2
2023-01-11T08:19:23.886Z,7.28
2023-01-11T08:20:23.973Z,7.28
2023-01-11T08:21:24.077Z,7.28
2023-01-11T08:22:24.179Z,7.28
2023-01-11T08:23:24.335Z,7.44
2023-01-11T08:24:24.439Z,7.44
2023-01-11T08:25:24.589Z,7.44
2023-01-11T08:26:24.684Z,7.52
2023-01-11T08:27:24.793Z,7.52
2023-01-11T08:28:24.938Z,7.44
2023-01-11T08:29:25.043Z,7.28
2023-01-11T08:30:25.198Z,7.28
2023-01-11T08:31:25.348Z,7.28
2023-01-11T08:32:25.497Z,7.28
2023-01-11T08:33:25.594Z,7.44
2023-01-11T08:34:25.749Z,7.44
2023-01-11T08:35:25.895Z,7.52
2023-01-11T08:36:26.000Z,7.44
2023-01-11T08:37:26.160Z,7.6
2023-01-11T08:38:26.324Z,7.52
2023-01-11T08:39:26.451Z,7.52
2023-01-11T08:40:26.613Z,7.52
2023-01-11T08:41:26.731Z,7.52
2023-01-11T08:42:26.858Z,7.52
2023-01-11T08:43:27.024Z,7.52
2023-01-11T08:44:34.447Z,7.6
2023-01-11T08:45:27.280Z,7.6
2023-01-11T08:46:27.434Z,7.52
2023-01-11T08:47:27.514Z,7.68
2023-01-11T08:48:27.667Z,7.68
2023-01-11T08:49:27.820Z,7.68
2023-01-11T08:50:28.025Z,7.68
2023-01-11T08:51:28.071Z,7.68
2023-01-11T08:52:28.233Z,7.68
2023-01-11T08:53:28.330Z,7.68
2023-01-11T08:54:28.434Z,7.84
2023-01-11T08:55:28.530Z,7.92
2023-01-11T08:56:28.682Z,7.84
2023-01-11T08:57:28.831Z,7.84
2023-01-11T08:58:28.929Z,7.84
2023-01-11T08:59:29.083Z,7.84
2023-01-11T09:00:29.184Z,7.92
2023-01-11T09:01:29.358Z,7.92
2023-01-11T09:02:29.482Z,7.84
2023-01-11T09:03:29.553Z,7.92
2023-01-11T09:04:29.641Z,7.92
2023-01-11T09:05:29.802Z,7.92
2023-01-11T09:06:29.949Z,7.92
2023-01-11T09:07:30.051Z,8
2023-01-11T09:08:30.163Z,8.24
2023-01-11T09:09:30.253Z,8.08
2023-01-11T09:10:30.355Z,8.08
2023-01-11T09:11:30.458Z,8
2023-01-11T09:12:30.550Z,8.08
2023-01-11T09:13:30.654Z,8.24
2023-01-11T09:14:30.756Z,8.24
2023-01-11T09:15:30.859Z,8.24
2023-01-11T09:16:31.010Z,8.24
2023-01-11T09:17:31.115Z,8.48
2023-01-11T09:18:31.228Z,8.32
2023-01-11T09:19:31.379Z,8.32
2023-01-11T09:20:31.461Z,8.24
2023-01-11T09:21:31.643Z,8.24
2023-01-11T09:22:31.722Z,8.32
2023-01-11T09:23:31.818Z,8.24
2023-01-11T09:24:32.034Z,8.32
2023-01-11T09:25:32.024Z,8.4
2023-01-11T09:26:32.126Z,8.4
2023-01-11T09:27:32.226Z,8.639999
2023-01-11T09:28:32.327Z,8.639999
2023-01-11T09:29:32.697Z,8.48
2023-01-11T09:30:32.650Z,8.48
2023-01-11T09:31:32.878Z,8.4
2023-01-11T09:32:32.950Z,8.4
2023-01-11T09:33:33.038Z,8.4
2023-01-11T09:34:33.172Z,8.48
2023-01-11T09:35:33.239Z,8.48
2023-01-11T09:36:33.385Z,8.639999
2023-01-11T09:37:33.537Z,8.639999
2023-01-11T09:38:33.647Z,8.72
2023-01-11T09:39:33.741Z,8.72
2023-01-11T09:40:33.842Z,8.8
2023-01-11T09:41:33.993Z,8.72
2023-01-11T09:42:34.145Z,8.72
2023-01-11T09:43:34.252Z,8.8
2023-01-11T09:44:34.358Z,8.8
2023-01-11T09:45:34.453Z,8.8
2023-01-11T09:46:34.661Z,9.04
2023-01-11T09:47:34.701Z,8.88
2023-01-11T09:48:34.808Z,9.04
2023-01-11T09:49:34.910Z,8.88
2023-01-11T09:50:35.082Z,8.88
2023-01-11T09:51:35.170Z,8.88
2023-01-11T09:52:35.266Z,8.88
2023-01-11T09:53:35.411Z,8.88
2023-01-11T09:54:35.571Z,8.88
2023-01-11T09:55:35.717Z,8.88
2023-01-11T09:56:35.820Z,8.88
2023-01-11T09:57:35.921Z,8.88
2023-01-11T09:58:36.125Z,8.88
2023-01-11T09:59:36.174Z,9.04
2023-01-11T10:00:36.373Z,9.12
2023-01-11T10:01:36.430Z,9.12
2023-01-11T10:02:36.525Z,9.04
2023-01-11T10:03:36.641Z,9.04
2023-01-11T10:04:36.788Z,9.04
2023-01-11T10:05:36.827Z,9.04
2023-01-11T10:06:36.930Z,9.04
2023-01-11T10:07:37.034Z,9.12
2023-01-11T10:18:24.892Z,9.12
2023-01-11T10:18:53.219Z,9.2
2023-01-11T10:19:40.504Z,9.36
2023-01-11T10:20:38.695Z,9.28
2023-01-11T10:21:38.756Z,9.28
2023-01-11T10:22:38.909Z,9.599999
2023-01-11T10:23:39.056Z,9.36
2023-01-11T10:24:39.161Z,9.28
2023-01-11T10:25:39.261Z,9.28
2023-01-11T10:26:39.474Z,9.36
2023-01-11T10:27:39.568Z,9.36
2023-01-11T10:28:39.620Z,9.36
2023-01-11T10:29:39.719Z,9.36
2023-01-11T10:30:41.710Z,9.28
2023-01-11T10:31:40.014Z,9.599999
2023-01-11T10:32:40.119Z,9.599999
2023-01-11T10:33:40.223Z,9.599999
2023-01-11T10:34:40.323Z,9.599999
2023-01-11T10:35:40.437Z,9.52
2023-01-11T10:36:40.525Z,9.36
2023-01-11T10:37:40.631Z,9.52
2023-01-11T10:38:40.742Z,9.52
2023-01-11T10:39:40.839Z,9.36
2023-01-11T10:40:40.991Z,9.52
2023-01-11T10:41:43.009Z,9.679999
2023-01-11T10:42:41.183Z,9.679999
2023-01-11T10:43:41.348Z,9.599999
2023-01-11T10:44:41.495Z,9.84
2023-01-11T10:45:41.686Z,9.679999
2023-01-11T10:46:41.710Z,9.599999
2023-01-11T10:47:41.791Z,9.84
2023-01-11T10:48:41.895Z,9.84
2023-01-11T10:49:42.045Z,9.92
2023-01-11T10:50:42.150Z,9.92
2023-01-11T10:51:42.251Z,10
2023-01-11T10:52:42.352Z,10
2023-01-11T10:53:42.517Z,10
2023-01-11T10:54:45.025Z,10
2023-01-11T10:55:42.704Z,10
2023-01-11T10:57:02.122Z,10.24
2023-01-11T10:57:59.343Z,10.08
2023-01-11T10:58:43.233Z,10.08
2023-01-11T10:59:43.362Z,10.08
2023-01-11T11:00:43.587Z,10
2023-01-11T11:01:43.682Z,10.08
2023-01-11T11:02:43.765Z,10.08
2023-01-11T11:03:43.926Z,10
2023-01-11T11:04:44.032Z,10
2023-01-11T11:05:44.126Z,10
2023-01-11T11:06:44.232Z,9.84
2023-01-11T11:07:44.373Z,10
2023-01-11T11:08:44.476Z,10.08
2023-01-11T11:09:44.656Z,10.48
2023-01-11T11:10:44.791Z,10.48
2023-01-11T11:11:44.873Z,10.48
2023-01-11T11:12:44.987Z,10.48
2023-01-11T11:13:45.135Z,10.32
2023-01-11T11:14:45.228Z,10.4
2023-01-11T11:15:45.342Z,10.32
2023-01-11T11:16:45.523Z,10.639999
2023-01-11T11:17:45.584Z,10.48
2023-01-11T11:18:45.685Z,10.4
2023-01-11T11:19:45.786Z,10.639999
2023-01-11T11:20:45.901Z,10.719999
2023-01-11T11:21:45.993Z,10.48
2023-01-11T11:22:46.093Z,10.639999
2023-01-11T11:23:46.200Z,10.48
2023-01-11T11:24:46.345Z,10.639999
2023-01-11T11:25:46.453Z,10.4
2023-01-11T11:26:46.560Z,10.32
2023-01-11T11:27:46.662Z,10.719999
2023-01-11T11:28:46.758Z,10.48
2023-01-11T11:29:46.858Z,10.48
2023-01-11T11:30:46.963Z,10.48
2023-01-11T11:31:47.161Z,10.48
2023-01-11T11:32:47.214Z,10.719999
2023-01-11T11:33:47.306Z,10.639999
2023-01-11T11:34:47.467Z,10.639999
2023-01-11T11:35:47.570Z,10.48
2023-01-11T11:36:47.665Z,10.639999
2023-01-11T11:37:47.815Z,10.719999
2023-01-11T11:38:47.916Z,10.48
2023-01-11T11:39:48.020Z,10.4
2023-01-11T11:40:48.175Z,10.4
2023-01-11T11:41:48.549Z,10.32
2023-01-11T11:42:48.671Z,10.32
2023-01-11T11:43:48.818Z,10.32
2023-01-11T11:44:48.976Z,10.32
2023-01-11T11:45:49.168Z,10.32
2023-01-11T11:46:49.252Z,10.48
2023-01-11T11:47:49.348Z,10.48
2023-01-11T11:48:49.486Z,10.48
2023-01-11T11:49:49.584Z,10.719999
2023-01-11T11:50:49.699Z,10.8
2023-01-11T11:51:49.787Z,10.88
2023-01-11T11:52:49.885Z,10.88
2023-01-11T11:53:49.993Z,10.719999
2023-01-11T11:54:50.146Z,10.719999
2023-01-11T11:55:50.292Z,10.719999
2023-01-11T11:56:50.395Z,10.8
2023-01-11T11:57:50.544Z,11.04
2023-01-11T11:58:50.644Z,10.88
2023-01-11T11:59:50.751Z,10.719999
2023-01-11T12:00:50.855Z,10.719999
2023-01-11T12:01:50.964Z,10.88
2023-01-11T12:02:51.049Z,10.719999
2023-01-11T12:03:51.151Z,10.719999
2023-01-11T12:04:51.288Z,10.639999
2023-01-11T12:05:51.362Z,10.639999
2023-01-11T12:06:51.503Z,10.639999
2023-01-11T12:07:54.985Z,10.639999
2023-01-11T12:08:51.757Z,10.48
2023-01-11T12:09:51.908Z,10.4
2023-01-11T12:10:52.066Z,10.48
2023-01-11T12:11:52.173Z,10.4
2023-01-11T12:12:52.313Z,10.48
2023-01-11T12:13:52.476Z,10.48
2023-01-11T12:14:52.602Z,10.24
2023-01-11T12:15:52.669Z,10.08
2023-01-11T12:16:52.778Z,10.32
2023-01-11T12:17:52.870Z,10.08
2023-01-11T12:18:52.975Z,10
2023-01-11T12:19:53.074Z,10
2023-01-11T12:20:53.225Z,9.84
2023-01-11T12:21:53.332Z,9.84
2023-01-11T12:22:53.478Z,9.679999
2023-01-11T12:23:53.583Z,9.679999
2023-01-11T12:24:53.682Z,9.92
2023-01-11T12:25:53.830Z,9.679999
2023-01-11T12:26:54.059Z,9.599999
2023-01-11T12:27:54.035Z,9.84
2023-01-11T12:28:54.340Z,9.599999
2023-01-11T12:29:54.438Z,9.52
2023-01-11T12:30:54.578Z,9.36
2023-01-11T12:31:54.649Z,9.28
2023-01-11T12:32:54.744Z,9.36
2023-01-11T12:33:54.896Z,9.2
2023-01-11T12:34:55.069Z,9.2
2023-01-11T12:35:55.218Z,9.28
2023-01-11T12:36:55.331Z,9.2
2023-01-11T12:37:55.419Z,9.2
2023-01-11T12:38:55.555Z,9.28
2023-01-11T12:39:55.702Z,9.36
2023-01-11T12:40:55.854Z,9.28
2023-01-11T12:41:55.963Z,9.2
2023-01-11T12:42:56.063Z,9.2
2023-01-11T12:43:56.240Z,9.12
2023-01-11T12:44:56.323Z,9.2
2023-01-11T12:45:56.429Z,9.12
2023-01-11T12:46:56.516Z,9.12
2023-01-11T12:47:56.665Z,9.28
2023-01-11T12:48:56.778Z,9.12
2023-01-11T12:49:56.871Z,9.12
2023-01-11T12:50:57.021Z,9.2
2023-01-11T12:51:57.175Z,9.12
2023-01-11T12:52:57.273Z,8.88
2023-01-11T12:53:57.391Z,8.8
2023-01-11T12:54:57.525Z,8.72
2023-01-11T12:55:57.678Z,8.72
2023-01-11T12:56:57.801Z,8.72
2023-01-11T12:57:57.884Z,8.72
2023-01-11T12:58:57.998Z,8.88
2023-01-11T12:59:58.092Z,8.88
2023-01-11T13:00:58.319Z,8.8
2023-01-11T13:01:58.348Z,8.8
2023-01-11T13:02:58.546Z,8.72
2023-01-11T13:03:58.538Z,8.72
2023-01-11T13:04:58.658Z,8.639999
2023-01-11T13:05:58.743Z,8.639999
2023-01-11T13:06:58.844Z,8.72
2023-01-11T13:07:58.994Z,8.639999
2023-01-11T13:08:59.102Z,8.48
2023-01-11T13:09:59.249Z,8.8
2023-01-11T13:10:59.350Z,8.72
2023-01-11T13:11:59.456Z,8.639999
2023-01-11T13:12:59.551Z,8.48
2023-01-11T13:13:59.654Z,8.4
2023-01-11T13:14:59.763Z,8.48
2023-01-11T13:15:59.908Z,8.48
2023-01-11T13:17:00.045Z,8.4
2023-01-11T13:18:00.128Z,8.4
2023-01-11T13:19:00.266Z,8.32
2023-01-11T13:20:00.402Z,8.24
2023-01-11T13:21:02.632Z,8.4
2023-01-11T13:22:00.670Z,8.48
2023-01-11T13:23:00.780Z,8.639999
2023-01-11T13:24:00.875Z,8.4
2023-01-11T13:25:00.976Z,8.24
2023-01-11T13:26:01.075Z,8.24
2023-01-11T13:27:01.276Z,8.08
2023-01-11T13:28:01.279Z,8.08
2023-01-11T13:29:01.380Z,8.08